Time;durP1;ratioP1;P1;durP2;ratioP2;P2;SDS_P1;SDS_P2;PMS_P1;PMS_P2;Temp;Humidity;BMP_temperature;BMP_pressure;BME280_temperature;BME280_humidity;BME280_pressure;Samples;Min_cycle;Max_cycle;Signal;HPM_P1;HPM_P2
2022/05/10 00:02:16;;;;;;;13.77;4.43;;;;;;;;;;5053235;28;20025;-76
2022/05/10 00:04:44;;;;;;;11.90;4.07;;;;;;;;;;5053316;28;20036;-77
2022/05/10 00:07:10;;;;;;;16.23;4.50;;;;;;;;;;5053914;28;20457;-77
2022/05/10 00:09:36;;;;;;;15.20;4.40;;;;;;;;;;5053620;28;20067;-77
2022/05/10 00:12:02;;;;;;;14.23;3.92;;;;;;;;;;5053431;28;20064;-77
2022/05/10 00:14:28;;;;;;;18.77;4.43;;;;;;;;;;5053628;28;20040;-77
2022/05/10 00:16:55;;;;;;;18.42;5.00;;;;;;;;;;5053769;28;20035;-77
2022/05/10 00:19:22;;;;;;;13.35;4.53;;;;;;;;;;5053277;28;20067;-77
2022/05/10 00:21:49;;;;;;;12.88;4.43;;;;;;;;;;5052725;28;20104;-77
2022/05/10 00:24:15;;;;;;;17.23;4.00;;;;;;;;;;5053116;28;20029;-77
2022/05/10 00:26:41;;;;;;;15.00;4.05;;;;;;;;;;5054264;28;20043;-77
2022/05/10 00:29:07;;;;;;;12.90;4.20;;;;;;;;;;5054789;28;20398;-77
2022/05/10 00:31:34;;;;;;;10.27;4.22;;;;;;;;;;5053623;28;20466;-77
2022/05/10 00:34:01;;;;;;;16.77;5.15;;;;;;;;;;5054365;28;20025;-77
2022/05/10 00:36:27;;;;;;;20.25;4.82;;;;;;;;;;5055477;28;20025;-76
2022/05/10 00:38:53;;;;;;;19.85;4.30;;;;;;;;;;5054365;28;20032;-77
2022/05/10 00:41:46;;;;;;;17.58;4.57;;;;;;;;;;5052220;28;20059;-77
2022/05/10 00:44:24;;;;;;;15.85;4.57;;;;;;;;;;5049319;28;20040;-76
2022/05/10 00:47:25;;;;;;;15.85;4.68;;;;;;;;;;5050961;28;20525;-77
2022/05/10 00:50:01;;;;;;;16.23;4.18;;;;;;;;;;4958026;28;20047;-77
2022/05/10 00:52:34;;;;;;;17.73;4.53;;;;;;;;;;5044255;28;20045;-77
2022/05/10 00:55:07;;;;;;;14.15;4.13;;;;;;;;;;5052446;28;20017;-77
2022/05/10 00:57:37;;;;;;;12.97;4.27;;;;;;;;;;5051814;28;20029;-76
2022/05/10 01:00:06;;;;;;;15.30;4.00;;;;;;;;;;5052299;28;20032;-76
2022/05/10 01:02:43;;;;;;;15.43;4.72;;;;;;;;;;5054779;28;20087;-77
2022/05/10 01:05:24;;;;;;;12.95;3.78;;;;;;;;;;5053674;28;20039;-76
2022/05/10 01:08:02;;;;;;;15.77;4.20;;;;;;;;;;5052464;28;20056;-77
2022/05/10 01:10:33;;;;;;;15.30;4.53;;;;;;;;;;5052917;28;20021;-77
2022/05/10 01:13:16;;;;;;;19.63;4.45;;;;;;;;;;5052182;28;20040;-77
2022/05/10 01:15:45;;;;;;;15.05;4.22;;;;;;;;;;5051930;28;20482;-77
2022/05/10 01:18:11;;;;;;;14.02;4.57;;;;;;;;;;5051780;28;20454;-77
2022/05/10 01:20:43;;;;;;;14.32;4.03;;;18.90;66.10;;;;;;5051963;28;20035;-76
2022/05/10 01:23:24;;;;;;;16.02;4.63;;;;;;;;;;5052296;28;20381;-76
2022/05/10 01:25:57;;;;;;;12.48;3.97;;;;;;;;;;5052445;28;20462;-76
2022/05/10 01:28:35;;;;;;;19.67;4.90;;;;;;;;;;5055848;28;20017;-77
2022/05/10 01:31:04;;;;;;;17.40;4.03;;;;;;;;;;5056400;28;20087;-76
2022/05/10 01:33:40;;;;;;;15.40;5.03;;;;;;;;;;5056386;28;20436;-76
2022/05/10 01:36:25;;;;;;;14.50;4.18;;;;;;;;;;5055706;28;20087;-77
2022/05/10 01:39:17;;;;;;;20.27;4.40;;;;;;;;;;5057153;28;20029;-76
2022/05/10 01:41:49;;;;;;;14.52;4.30;;;;;;;;;;5053812;28;20029;-77
2022/05/10 01:44:35;;;;;;;13.55;4.22;;;;;;;;;;5057385;28;20029;-76
2022/05/10 01:47:12;;;;;;;16.40;4.25;;;;;;;;;;5062258;28;20039;-77
2022/05/10 01:49:45;;;;;;;20.70;4.20;;;;;;;;;;5063379;28;20021;-77
2022/05/10 01:52:11;;;;;;;30.15;5.07;;;;;;;;;;5063076;28;20032;-77
2022/05/10 01:54:40;;;;;;;13.50;4.03;;;;;;;;;;5059016;28;20028;-77
2022/05/10 01:57:08;;;;;;;14.80;4.20;;;;;;;;;;5057713;28;20061;-77
2022/05/10 01:59:34;;;;;;;12.20;4.28;;;;;;;;;;5055466;28;20060;-77
2022/05/10 02:02:00;;;;;;;16.23;4.25;;;;;;;;;;5055311;28;20059;-77
2022/05/10 02:04:29;;;;;;;16.45;3.83;;;;;;;;;;5055178;28;20485;-77
2022/05/10 02:06:58;;;;;;;19.17;4.50;;;;;;;;;;5054934;28;20021;-76
2022/05/10 02:09:42;;;;;;;21.00;4.53;;;;;;;;;;5055547;28;20021;-75
2022/05/10 02:12:13;;;;;;;17.88;5.00;;;;;;;;;;5055457;28;20065;-77
2022/05/10 02:14:42;;;;;;;14.13;4.55;;;;;;;;;;5056527;28;20064;-75
2022/05/10 02:17:21;;;;;;;14.93;4.15;;;;;;;;;;5055705;28;20025;-77
2022/05/10 02:19:53;;;;;;;14.77;4.47;;;;;;;;;;5055429;28;20043;-76
2022/05/10 02:22:22;;;;;;;14.45;4.55;;;;;;;;;;5057186;28;20068;-77
2022/05/10 02:24:51;;;;;;;13.93;4.82;;;;;;;;;;5050573;28;20035;-77
2022/05/10 02:27:22;;;;;;;21.00;5.28;;;;;;;;;;5045874;28;20025;-76
2022/05/10 02:29:51;;;;;;;10.65;4.10;;;;;;;;;;5045082;28;20021;-76
2022/05/10 02:35:05;;;;;;;14.35;4.97;;;;;;;;;;5035326;28;20461;-75
2022/05/10 02:37:31;;;;;;;18.23;4.82;;;;;;;;;;5034305;28;20025;-75
2022/05/10 02:39:58;;;;;;;12.57;4.43;;;;;;;;;;5035722;28;20079;-76
2022/05/10 02:42:24;;;;;;;17.52;4.50;;;;;;;;;;5034784;28;20028;-77
2022/05/10 02:44:50;;;;;;;21.10;5.20;;;;;;;;;;5034753;28;20029;-76
2022/05/10 02:47:26;;;;;;;16.85;4.57;;;;;;;;;;5034300;28;20018;-75
2022/05/10 02:49:52;;;;;;;18.67;4.82;;;;;;;;;;5034829;28;20538;-76
2022/05/10 02:52:18;;;;;;;14.55;4.68;;;;;;;;;;5033380;28;20069;-76
2022/05/10 02:54:44;;;;;;;14.98;4.63;;;;;;;;;;5034544;28;20030;-76
2022/05/10 02:57:10;;;;;;;14.23;5.10;;;;;;;;;;5033916;28;20036;-76
2022/05/10 02:59:37;;;;;;;18.30;5.43;;;;;;;;;;5034431;28;20025;-77
2022/05/10 03:02:20;;;;;;;14.45;4.30;;;;;;;;;;5034693;28;20462;-77
2022/05/10 03:04:51;;;;;;;12.98;4.63;;;;;;;;;;5034884;28;20075;-76
2022/05/10 03:07:16;;;;;;;13.52;4.10;;;;;;;;;;5036669;28;20018;-75
2022/05/10 03:09:42;;;;;;;18.85;4.72;;;;;;;;;;5037491;28;20057;-75
2022/05/10 03:12:09;;;;;;;14.25;4.55;;;;;;;;;;5036098;28;20368;-76
2022/05/10 03:14:35;;;;;;;14.73;5.18;;;;;;;;;;5035521;28;20501;-77
2022/05/10 03:17:03;;;;;;;13.73;4.55;;;;;;;;;;5035007;28;20030;-76
2022/05/10 03:19:29;;;;;;;18.20;5.20;;;;;;;;;;5035953;28;20394;-75
2022/05/10 03:21:55;;;;;;;15.02;4.97;;;;;;;;;;5034398;28;20026;-76
2022/05/10 03:24:21;;;;;;;17.17;5.60;;;;;;;;;;5034014;28;20482;-75
2022/05/10 03:26:48;;;;;;;15.35;5.10;;;;;;;;;;5034014;28;20471;-76
2022/05/10 03:29:15;;;;;;;17.98;5.05;;;;;;;;;;5035493;28;20029;-75
2022/05/10 03:31:41;;;;;;;19.88;4.72;;;;;;;;;;5033570;28;20025;-76
2022/05/10 03:36:52;;;;;;;12.82;5.00;;;;;;;;;;5033949;28;20593;-76
2022/05/10 03:39:18;;;;;;;16.85;5.85;;;;;;;;;;5033049;28;20063;-76
2022/05/10 03:41:44;;;;;;;20.05;6.88;;;;;;;;;;5036506;28;20447;-76
2022/05/10 03:44:10;;;;;;;14.68;5.60;;;;;;;;;;5038235;28;20021;-77
2022/05/10 03:46:36;;;;;;;14.68;4.90;;;;;;;;;;5036195;28;20112;-77
2022/05/10 03:49:03;;;;;;;12.77;4.55;;;;;;;;;;5036627;28;20105;-77
2022/05/10 03:51:29;;;;;;;16.33;4.93;;;;;;;;;;5036005;28;20123;-76
2022/05/10 03:53:55;;;;;;;17.38;4.93;;;;;;;;;;5036665;28;20029;-78
2022/05/10 03:56:21;;;;;;;29.05;4.97;;;;;;;;;;5036126;28;20025;-76
2022/05/10 03:58:47;;;;;;;14.15;5.43;;;;;;;;;;5035664;28;20216;-77
2022/05/10 04:01:13;;;;;;;15.10;4.43;;;;;;;;;;5034230;28;20029;-77
2022/05/10 04:03:39;;;;;;;17.25;5.43;;;;;;;;;;5034304;28;20390;-76
2022/05/10 04:06:05;;;;;;;19.00;5.55;;;;;;;;;;5033887;28;20429;-77
2022/05/10 04:08:31;;;;;;;14.10;4.47;;;;;;;;;;5033302;28;20105;-76
2022/05/10 04:11:04;;;;;;;18.38;5.78;;;;;;;;;;5034419;28;20072;-76
2022/05/10 04:13:29;;;;;;;17.90;5.18;;;;;;;;;;5035151;28;20029;-75
2022/05/10 04:15:56;;;;;;;15.90;5.00;;;;;;;;;;5034203;28;20029;-77
2022/05/10 04:18:22;;;;;;;14.55;4.75;;;;;;;;;;5033135;28;20040;-76
2022/05/10 04:20:47;;;;;;;12.40;4.88;;;;;;;;;;5041816;28;20036;-76
2022/05/10 04:23:13;;;;;;;17.23;5.10;;;;;;;;;;5046835;28;20159;-77
2022/05/10 04:25:39;;;;;;;16.88;5.30;;;;;;;;;;5033132;28;20400;-77
2022/05/10 04:28:06;;;;;;;11.75;5.32;;;;;;;;;;5032929;28;20104;-78
2022/05/10 04:30:33;;;;;;;16.85;5.70;;;;;;;;;;5033167;28;20486;-78
2022/05/10 04:32:59;;;;;;;22.15;5.65;;;;;;;;;;5034037;28;20360;-78
2022/05/10 04:35:24;;;;;;;16.20;5.40;;;;;;;;;;5033784;28;20029;-76
2022/05/10 04:37:50;;;;;;;16.23;5.25;;;;;;;;;;5033966;28;20531;-77
2022/05/10 04:43:01;;;;;;;11.85;4.82;;;;;;;;;;5033618;28;20517;-77
2022/05/10 04:45:27;;;;;;;19.00;5.38;;;;;;;;;;5034021;28;20087;-76
2022/05/10 04:47:53;;;;;;;14.55;5.20;;;;;;;;;;5034559;28;20025;-77
2022/05/10 04:50:19;;;;;;;14.77;5.28;;;;;;;;;;5033545;28;20053;-77
2022/05/10 04:52:45;;;;;;;15.10;5.20;;;;;;;;;;5042849;28;20093;-76
2022/05/10 04:55:12;;;;;;;18.35;5.88;;;;;;;;;;5042907;28;20025;-76
2022/05/10 04:57:38;;;;;;;14.05;4.95;;;;;;;;;;5045805;28;20033;-80
2022/05/10 05:00:05;;;;;;;21.02;5.60;;;;;;;;;;5046551;28;20029;-77
2022/05/10 05:02:31;;;;;;;11.75;4.75;;;;;;;;;;5044026;28;20034;-77
2022/05/10 05:04:57;;;;;;;13.35;5.50;;;;;;;;;;5042908;28;20056;-76
2022/05/10 05:07:23;;;;;;;15.77;5.40;;;;;;;;;;5049321;28;20025;-75
2022/05/10 05:09:49;;;;;;;16.52;5.72;;;;;;;;;;5047785;28;20034;-76
2022/05/10 05:12:16;;;;;;;17.50;6.20;;;;;;;;;;5044806;28;20081;-78
2022/05/10 05:14:42;;;;;;;15.40;5.88;;;;;;;;;;5042681;28;20036;-78
2022/05/10 05:17:08;;;;;;;11.25;5.13;;;;;;;;;;5047029;28;20049;-75
2022/05/10 05:19:34;;;;;;;8.65;4.80;;;;;;;;;;5045224;28;20021;-79
2022/05/10 05:22:00;;;;;;;22.35;5.10;;;;;;;;;;5048655;28;20056;-78
2022/05/10 05:24:26;;;;;;;13.55;4.72;;;;;;;;;;5045601;28;20029;-75
2022/05/10 05:26:53;;;;;;;20.67;5.13;;;;;;;;;;5040742;28;20037;-77
2022/05/10 05:29:19;;;;;;;16.10;5.30;;;;;;;;;;5040434;28;20030;-76
2022/05/10 05:31:45;;;;;;;14.93;5.60;;;;;;;;;;5036191;28;20032;-76
2022/05/10 05:34:11;;;;;;;17.17;5.28;;;;;;;;;;5036907;28;20257;-79
2022/05/10 05:36:37;;;;;;;20.30;5.53;;;;;;;;;;5042382;28;20022;-80
2022/05/10 05:39:03;;;;;;;14.75;5.13;;;;;;;;;;5048149;28;20026;-78
2022/05/10 05:41:29;;;;;;;13.82;5.20;;;;;;;;;;5045159;28;20026;-77
2022/05/10 05:43:55;;;;;;;19.75;6.03;;;;;;;;;;5036328;28;20026;-78
2022/05/10 05:46:21;;;;;;;16.80;7.20;;;;;;;;;;5036495;28;20036;-78
2022/05/10 05:48:47;;;;;;;23.15;6.70;;;;;;;;;;5032388;28;20025;-76
2022/05/10 05:51:13;;;;;;;24.08;5.85;;;;;;;;;;5036733;28;20048;-79
2022/05/10 05:53:39;;;;;;;24.45;5.88;;;;;;;;;;5040764;28;20104;-78
2022/05/10 05:56:10;;;;;;;16.83;5.60;;;;;;;;;;5036168;28;20529;-78
2022/05/10 05:58:37;;;;;;;22.48;6.13;;;;;;;;;;5039835;28;20049;-79
2022/05/10 06:01:09;;;;;;;17.48;5.50;;;;;;;;;;5044137;28;20029;-78
2022/05/10 06:03:35;;;;;;;11.05;4.70;;;;;;;;;;5044869;28;20029;-80
2022/05/10 06:06:01;;;;;;;24.38;5.47;;;;;;;;;;5046606;28;20076;-78
2022/05/10 06:08:27;;;;;;;16.90;5.95;;;;;;;;;;5046491;28;20014;-78
2022/05/10 06:10:55;;;;;;;17.50;5.85;;;;;;;;;;5045995;28;20025;-78
2022/05/10 06:13:21;;;;;;;19.17;5.65;;;;;;;;;;5044108;28;20041;-78
2022/05/10 06:15:47;;;;;;;14.57;4.95;;;;;;;;;;5042986;28;20026;-79
2022/05/10 06:18:15;;;;;;;17.88;5.72;;;;;;;;;;5040454;28;20034;-78
2022/05/10 06:20:41;;;;;;;22.05;6.63;;;;;;;;;;5043317;28;20030;-80
2022/05/10 06:23:07;;;;;;;13.57;5.20;;;;;;;;;;5044681;28;20029;-81
2022/05/10 06:25:35;;;;;;;38.78;6.20;;;;;;;;;;5044869;28;20091;-79
2022/05/10 06:28:01;;;;;;;18.25;5.47;;;;;;;;;;5046971;28;20022;-81
2022/05/10 06:30:27;;;;;;;20.25;5.63;;;;;;;;;;5050091;28;20029;-80
2022/05/10 06:32:55;;;;;;;16.38;5.30;;;;;;;;;;5045947;28;20113;-78
2022/05/10 06:35:21;;;;;;;19.42;5.68;;;;;;;;;;5045004;28;20563;-79
2022/05/10 06:40:32;;;;;;;;;;;;;;;;;;5042991;28;20036;-79
2022/05/10 06:42:59;;;;;;;23.42;7.60;;;;;;;;;;5041253;28;19969;-80
2022/05/10 06:45:25;;;;;;;17.42;6.03;;;;;;;;;;5041551;28;20132;-80
2022/05/10 06:47:51;;;;;;;23.75;5.78;;;;;;;;;;5041697;28;20041;-80
2022/05/10 06:50:18;;;;;;;20.52;5.80;;;;;;;;;;5042074;28;20395;-79
2022/05/10 06:52:44;;;;;;;23.23;6.07;;;;;;;;;;5050027;28;20108;-78
2022/05/10 06:55:11;;;;;;;16.40;6.18;;;;;;;;;;5056503;28;20029;-77
2022/05/10 06:57:37;;;;;;;24.23;6.90;;;;;;;;;;5050007;28;20104;-77
2022/05/10 07:00:04;;;;;;;20.23;5.55;;;;;;;;;;5040408;28;20037;-77
2022/05/10 07:02:30;;;;;;;20.27;5.97;;;;;;;;;;5044250;28;20036;-77
2022/05/10 07:04:56;;;;;;;18.77;5.68;;;;;;;;;;5043740;28;20044;-77
2022/05/10 07:07:22;;;;;;;24.33;6.18;;;;;;;;;;5046620;28;20095;-77
2022/05/10 07:09:48;;;;;;;27.40;5.93;;;;;;;;;;5047263;28;20443;-77
2022/05/10 07:12:15;;;;;;;23.75;5.47;;;;;;;;;;5043815;28;20021;-76
2022/05/10 07:14:41;;;;;;;20.33;6.75;;;;;;;;;;5046722;28;20060;-77
2022/05/10 07:17:07;;;;;;;27.17;5.60;;;;;;;;;;5042733;28;20021;-77
2022/05/10 07:19:33;;;;;;;26.10;6.97;;;;;;;;;;5039756;28;20132;-78
2022/05/10 07:21:59;;;;;;;23.15;6.25;;;;;;;;;;5040767;28;20060;-77
2022/05/10 07:24:25;;;;;;;28.27;5.85;;;;;;;;;;5040364;28;20033;-79
2022/05/10 07:26:51;;;;;;;20.92;6.32;;;;;;;;;;5039394;28;20403;-77
2022/05/10 07:29:17;;;;;;;24.42;5.95;;;;;;;;;;5039042;28;20025;-78
2022/05/10 07:31:43;;;;;;;13.00;5.18;;;;;;;;;;5040319;28;20561;-80
2022/05/10 07:34:10;;;;;;;23.10;5.68;;;;;;;;;;5043561;28;20036;-78
2022/05/10 07:36:36;;;;;;;19.02;5.07;;;;;;;;;;5047252;28;20021;-77
2022/05/10 07:39:06;;;;;;;21.60;4.97;;;;;;;;;;5047126;28;20035;-79
2022/05/10 07:41:33;;;;;;;18.52;5.30;;;;;;;;;;5046721;28;20028;-77
2022/05/10 07:43:59;;;;;;;21.35;7.22;;;;;;;;;;5037943;28;20485;-76
2022/05/10 07:46:25;;;;;;;16.38;5.05;;;;;;;;;;5038048;28;20096;-77
2022/05/10 07:48:52;;;;;;;18.55;5.45;;;;;;;;;;5038401;28;20032;-76
2022/05/10 07:51:18;;;;;;;14.23;5.18;;;;;;;;;;5040211;28;20040;-78
2022/05/10 07:53:44;;;;;;;15.85;5.53;;;;;;;;;;5039800;28;20095;-77
2022/05/10 07:56:10;;;;;;;15.80;5.75;;;;;;;;;;5039687;28;20032;-77
2022/05/10 07:58:36;;;;;;;15.02;5.80;;;;;;;;;;5035526;28;20025;-78
2022/05/10 08:01:04;;;;;;;16.02;5.45;;;;;;;;;;5037232;28;20086;-77
2022/05/10 08:03:30;;;;;;;22.15;5.68;;;;;;;;;;5041303;28;20028;-77
2022/05/10 08:05:56;;;;;;;22.02;6.70;;;;;;;;;;5046561;28;20021;-75
2022/05/10 08:08:23;;;;;;;19.10;7.25;;;;;;;;;;5048272;28;20083;-74
2022/05/10 08:10:50;;;;;;;20.75;5.35;;;;;;;;;;5048558;28;20026;-78
2022/05/10 08:13:17;;;;;;;23.27;6.68;;;;;;;;;;5038964;28;20025;-77
2022/05/10 08:15:44;;;;;;;18.17;6.43;;;;;;;;;;5041611;28;20029;-78
2022/05/10 08:18:10;;;;;;;18.33;5.63;;;;;;;;;;5042857;28;20048;-79
2022/05/10 08:20:37;;;;;;;17.73;5.63;;;;;;;;;;5039453;28;20463;-78
2022/05/10 08:23:04;;;;;;;14.40;5.43;;;;;;;;;;5038261;28;20486;-77
2022/05/10 08:25:30;;;;;;;18.10;5.88;;;;;;;;;;5037840;28;20071;-77
2022/05/10 08:27:56;;;;;;;15.52;6.65;;;;;;;;;;5037380;28;20018;-75
2022/05/10 08:30:22;;;;;;;18.60;6.53;;;;;;;;;;5042356;28;20022;-76
2022/05/10 08:32:47;;;;;;;15.40;6.18;;;;;;;;;;5042532;28;20017;-76
2022/05/10 08:35:13;;;;;;;13.18;5.82;;;;;;;;;;5045515;28;20025;-74
2022/05/10 08:37:39;;;;;;;19.27;5.85;;;;;;;;;;5042336;28;20502;-76
2022/05/10 08:40:06;;;;;;;22.08;6.60;;;;;;;;;;5042980;28;20049;-76
2022/05/10 08:42:34;;;;;;;14.85;6.57;;;;;;;;;;5038398;28;20049;-76
2022/05/10 08:45:01;;;;;;;17.02;6.45;;;;;;;;;;5039930;28;20025;-77
2022/05/10 08:47:28;;;;;;;17.83;6.65;;;;;;;;;;5043295;28;20025;-76
2022/05/10 08:50:03;;;;;;;17.73;6.35;;;;;;;;;;5041075;28;20099;-79
2022/05/10 08:52:31;;;;;;;14.88;5.82;;;;;;;;;;5047990;28;20033;-77
2022/05/10 08:54:57;;;;;;;15.02;6.35;;;;;;;;;;5046554;28;20040;-79
2022/05/10 08:57:29;;;;;;;18.58;7.20;;;;;;;;;;5037842;28;20048;-78
2022/05/10 09:00:10;;;;;;;17.65;6.80;;;;;;;;;;5037839;28;20033;-78
2022/05/10 09:02:51;;;;;;;15.52;7.30;;;;;;;;;;5038218;28;20021;-77
2022/05/10 09:05:38;;;;;;;20.13;6.60;;;;;;;;;;5033784;28;20109;-78
2022/05/10 09:08:13;;;;;;;13.15;6.03;;;;;;;;;;5035954;28;20399;-78
2022/05/10 09:10:42;;;;;;;17.45;6.90;;;;;;;;;;5035646;28;20430;-77
2022/05/10 09:13:11;;;;;;;18.75;6.93;;;;;;;;;;5036349;28;20075;-78
2022/05/10 09:15:39;;;;;;;13.02;5.40;;;;;;;;;;5037091;28;20021;-76
2022/05/10 09:18:17;;;;;;;15.27;6.07;;;;;;;;;;5036781;28;20021;-77
2022/05/10 09:21:01;;;;;;;23.23;6.63;;;;;;;;;;5035803;28;20051;-77
2022/05/10 09:23:35;;;;;;;14.05;6.53;;;;;;;;;;5036974;28;20025;-77
2022/05/10 09:26:02;;;;;;;14.02;5.75;;;;;;;;;;5034349;28;20474;-78
2022/05/10 09:28:28;;;;;;;13.93;5.20;;;;;;;;;;5035981;28;20025;-77
2022/05/10 09:36:27;;;;;;;16.05;5.78;;;;;;;;;;5036027;28;20120;-77
2022/05/10 09:38:59;;;;;;;13.65;5.57;;;;;;;;;;5035059;28;20483;-76
2022/05/10 09:41:46;;;;;;;17.13;5.95;;;;;;;;;;5038283;28;20033;-78
2022/05/10 09:44:26;;;;;;;14.32;5.22;;;;;;;;;;5036783;28;20491;-75
2022/05/10 09:47:08;;;;;;;19.35;5.68;;;;;;;;;;5035155;28;20108;-76
2022/05/10 09:49:36;;;;;;;14.10;5.90;;;;;;;;;;5040440;28;20049;-77
2022/05/10 09:52:03;;;;;;;15.23;5.13;;;;;;;;;;5038425;28;20259;-76
2022/05/10 09:54:39;;;;;;;33.58;6.20;;;;;;;;;;5036879;28;20036;-75
2022/05/10 09:57:09;;;;;;;15.90;5.25;;;;;;;;;;5037645;28;20040;-77
2022/05/10 09:59:40;;;;;;;19.45;4.97;;;;;;;;;;5038907;28;20083;-77
2022/05/10 10:02:06;;;;;;;16.73;4.60;;;;;;;;;;5037757;28;20458;-77
2022/05/10 10:04:37;;;;;;;11.57;4.95;;;;;;;;;;5041205;28;20041;-78
2022/05/10 10:07:03;;;;;;;16.80;5.20;;;;;;;;;;5039225;28;20029;-75
2022/05/10 10:09:34;;;;;;;13.88;4.50;;;;;;;;;;5037832;28;20467;-76
2022/05/10 10:12:01;;;;;;;16.27;5.35;;;;;;;;;;5037573;28;20072;-76
2022/05/10 10:14:53;;;;;;;16.80;4.38;;;;;;;;;;5041120;28;20029;-76
2022/05/10 10:17:39;;;;;;;15.43;5.13;;;;;;;;;;5038568;28;20483;-77
2022/05/10 10:20:14;;;;;;;13.88;4.38;;;;;;;;;;5040198;28;20029;-77
2022/05/10 10:22:42;;;;;;;12.60;4.03;;;;;;;;;;5039327;28;20041;-78
2022/05/10 10:25:20;;;;;;;16.00;3.45;;;;;;;;;;5046292;28;20074;-77
2022/05/10 10:27:50;;;;;;;17.92;3.78;;;;;;;;;;5044859;28;20048;-79
2022/05/10 10:30:23;;;;;;;11.18;3.60;;;;;;;;;;5045845;28;20029;-79
2022/05/10 10:33:08;;;;;;;13.20;3.55;;;;;;;;;;5044845;28;20037;-77
2022/05/10 10:35:46;;;;;;;15.05;2.97;;;;;;;;;;5049006;28;20034;-76
2022/05/10 10:38:15;;;;;;;16.73;4.68;;;;;;;;;;5047542;28;20037;-77
2022/05/10 10:40:47;;;;;;;12.35;3.03;;;;;;;;;;5042881;28;20036;-77
2022/05/10 10:43:28;;;;;;;6.53;2.85;;;;;;;;;;5049351;28;20101;-77
2022/05/10 10:46:08;;;;;;;10.70;3.40;;;;;;;;;;5039803;28;20022;-76
2022/05/10 10:48:46;;;;;;;14.13;3.50;;;;;;;;;;5038220;28;20021;-77
2022/05/10 10:51:15;;;;;;;13.35;2.83;;;;;;;;;;5041337;28;20041;-78
2022/05/10 10:53:41;;;;;;;6.60;2.78;;;;;;;;;;5045784;28;20103;-77
2022/05/10 10:56:09;;;;;;;9.27;3.30;;;;;;;;;;5042736;28;20025;-77
2022/05/10 10:58:44;;;;;;;9.15;2.95;;;;;;;;;;5043683;28;20096;-77
2022/05/10 11:01:37;;;;;;;6.25;2.42;;;;;;;;;;5042749;28;20029;-77
2022/05/10 11:04:12;;;;;;;10.85;2.90;;;;;;;;;;5020455;28;20071;-77
2022/05/10 11:06:41;;;;;;;13.40;2.42;;;;;;;;;;5048315;28;20076;-77
2022/05/10 11:09:12;;;;;;;12.60;3.08;;;;;;;;;;5039111;28;20472;-77
2022/05/10 11:11:55;;;;;;;7.88;2.75;;;;;;;;;;5042606;28;20026;-77
2022/05/10 11:14:29;;;;;;;9.20;3.30;;;;;;;;;;5047980;28;20092;-78
2022/05/10 11:17:14;;;;;;;10.77;3.38;;;;;;;;;;5040277;28;20021;-77
2022/05/10 11:19:45;;;;;;;7.45;2.85;;;;;;;;;;5045400;28;20061;-77
2022/05/10 11:22:20;;;;;;;6.82;3.28;;;;;;;;;;5048197;28;20029;-78
2022/05/10 11:25:06;;;;;;;8.43;2.67;;;;;;;;;;5039056;28;20069;-77
2022/05/10 11:27:38;;;;;;;15.25;3.30;;;;;;;;;;5037928;28;20029;-77
2022/05/10 11:30:07;;;;;;;8.60;2.90;;;;;;;;;;5043389;28;20055;-80
2022/05/10 11:32:42;;;;;;;10.63;3.22;;;;;;;;;;5041577;28;20505;-78
2022/05/10 11:35:16;;;;;;;11.63;2.88;;;;;;;;;;5046284;28;20498;-79
2022/05/10 11:37:51;;;;;;;5.30;2.42;;;;;;;;;;5047589;28;20029;-77
2022/05/10 11:40:26;;;;;;;9.52;2.60;;;;;;;;;;5047617;28;20028;-79
2022/05/10 11:42:52;;;;;;;;;;;;;;;;;;5041256;28;20030;-79
2022/05/10 11:45:34;;;;;;;8.32;2.35;;;;;;;;;;5040438;28;19913;-79
2022/05/10 11:48:03;;;;;;;12.93;3.00;;;;;;;;;;5040312;28;20022;-77
2022/05/10 11:50:32;;;;;;;6.95;2.40;;;;;;;;;;5040436;28;20026;-77
2022/05/10 11:53:17;;;;;;;10.98;2.58;;;;;;;;;;5040296;28;20029;-79
2022/05/10 11:55:54;;;;;;;8.02;2.67;;;;;;;;;;5040169;28;20463;-76
2022/05/10 11:58:21;;;;;;;5.97;2.45;;;;;;;;;;5037976;28;20026;-78
2022/05/10 12:00:52;;;;;;;9.57;3.00;;;;;;;;;;5049005;28;20025;-78
2022/05/10 12:03:45;;;;;;;13.82;3.08;;;;;;;;;;5047611;28;20039;-77
2022/05/10 12:06:23;;;;;;;15.90;5.53;;;;;;;;;;5039482;28;20022;-78
2022/05/10 12:08:56;;;;;;;17.83;3.10;;;;;;;;;;5038783;28;20026;-78
2022/05/10 12:11:28;;;;;;;13.70;3.55;;;;;;;;;;5043259;28;20479;-77
2022/05/10 12:22:18;;;;;;;11.68;3.15;;;;;;;;;;5038706;28;20041;-77
2022/05/10 12:24:45;;;;;;;15.20;3.50;;;;;;;;;;5035958;28;20080;-78
2022/05/10 12:27:11;;;;;;;13.95;3.92;;;;;;;;;;5036961;28;20049;-78
2022/05/10 12:29:40;;;;;;;20.27;3.80;;;;;;;;;;5039168;28;20025;-78
2022/05/10 12:32:21;;;;;;;9.82;3.65;;;;;;;;;;5041691;28;20025;-77
2022/05/10 12:35:00;;;;;;;12.15;3.83;;;;;;;;;;5039951;28;20360;-77
2022/05/10 12:37:27;;;;;;;8.20;3.38;;;;;;;;;;5042982;28;20048;-78
2022/05/10 12:40:05;;;;;;;11.13;3.30;;;;;;;;;;5034817;28;20026;-77
2022/05/10 12:42:39;;;;;;;15.20;3.95;;;;;;;;;;5036937;28;20037;-77
2022/05/10 12:45:19;;;;;;;10.75;3.85;;;;;;;;;;5038368;28;20025;-77
2022/05/10 12:47:45;;;;;;;13.30;4.28;;;;;;;;;;5037827;28;20021;-76
2022/05/10 12:50:38;;;;;;;13.05;3.83;;;;;;;;;;5033523;28;20065;-76
2022/05/10 12:53:18;;;;;;;7.93;3.22;;;;;;;;;;5030089;28;20041;-76
2022/05/10 12:55:44;;;;;;;13.40;4.10;;;;;;;;;;5032767;28;20045;-76
2022/05/10 12:58:20;;;;;;;7.47;3.75;;;;;;;;;;5037373;28;20382;-77
2022/05/10 13:00:48;;;;;;;15.80;4.13;;;;;;;;;;5035281;28;20076;-78
2022/05/10 13:03:21;;;;;;;15.85;4.07;;;;;;;;;;5033340;28;20096;-78
2022/05/10 13:05:53;;;;;;;11.48;3.90;;;;;;;;;;5032786;28;20505;-77
2022/05/10 13:08:22;;;;;;;7.40;3.67;;;;;;;;;;5033349;28;20037;-78
2022/05/10 13:10:49;;;;;;;18.70;3.47;;;;;;;;;;5032904;28;20032;-77
2022/05/10 13:13:18;;;;;;;12.70;3.90;;;;;;;;;;5032626;28;20120;-78
2022/05/10 13:15:45;;;;;;;9.95;3.83;;;;;;;;;;5032802;28;20021;-75
2022/05/10 13:18:16;;;;;;;17.42;5.43;;;;;;;;;;5032325;28;20075;-77
2022/05/10 13:20:52;;;;;;;13.05;4.70;;;;;;;;;;5032964;28;20029;-76
2022/05/10 13:23:18;;;;;;;12.52;4.60;;;;;;;;;;5040072;28;20025;-77
2022/05/10 13:25:44;;;;;;;12.57;4.57;;;;;;;;;;5036739;28;20029;-78
2022/05/10 13:28:13;;;;;;;18.50;4.72;;;;;;;;;;5038390;28;20383;-77
2022/05/10 13:30:40;;;;;;;14.02;4.80;;;;;;;;;;5040961;28;20014;-78
2022/05/10 13:33:06;;;;;;;16.23;4.60;;;;;;;;;;5035221;28;20029;-77
2022/05/10 13:35:35;;;;;;;9.23;4.18;;;;;;;;;;5036931;28;20052;-76
2022/05/10 13:38:03;;;;;;;10.43;4.10;;;;;;;;;;5036872;28;20032;-75
2022/05/10 13:40:29;;;;;;;12.13;4.00;;;;;;;;;;5036714;28;20487;-77
2022/05/10 13:42:57;;;;;;;17.70;4.55;;;;;;;;;;5037386;28;20036;-76
2022/05/10 13:45:24;;;;;;;15.55;3.90;;;;;;;;;;5039061;28;20091;-76
2022/05/10 13:47:54;;;;;;;15.20;4.30;;;;;;;;;;5045599;28;20017;-76
2022/05/10 13:50:22;;;;;;;9.00;4.60;;;;;;;;;;5047767;28;20041;-77
2022/05/10 13:52:50;;;;;;;14.32;5.78;;;;;;;;;;5048294;28;20052;-76
2022/05/10 13:55:17;;;;;;;16.42;5.63;;;;;;;;;;5045017;28;20080;-77
2022/05/10 13:57:52;;;;;;;12.30;4.97;;;;;;;;;;5051444;28;20104;-79
2022/05/10 14:00:25;;;;;;;15.88;5.50;;;;;;;;;;5047226;28;20037;-77
2022/05/10 14:02:53;;;;;;;13.95;5.35;;;;;;;;;;5045237;28;20032;-78
2022/05/10 14:05:19;;;;;;;30.75;7.78;;;;;;;;;;5040713;28;20026;-77
2022/05/10 14:07:48;;;;;;;19.45;7.45;;;;;;;;;;5040807;28;20025;-76
2022/05/10 14:10:15;;;;;;;18.45;7.72;;;;;;;;;;5035226;28;20029;-75
2022/05/10 14:12:49;;;;;;;17.95;7.03;;;;;;;;;;5046697;28;20504;-76
2022/05/10 14:15:27;;;;;;;17.95;7.75;;;;;;;;;;5055216;28;20020;-75
2022/05/10 14:17:56;;;;;;;33.17;9.25;;;;;;;;;;5055768;28;20028;-74
2022/05/10 14:20:24;;;;;;;14.50;5.88;;;;;;;;;;5054284;28;20478;-76
2022/05/10 14:22:59;;;;;;;17.30;7.03;;;;;;;;;;5055717;28;20028;-77
2022/05/10 14:25:26;;;;;;;21.98;8.20;;;;;;;;;;5054884;28;20051;-80
2022/05/10 14:28:11;;;;;;;18.95;7.07;;;;;;;;;;5056036;28;20060;-76
2022/05/10 14:30:42;;;;;;;14.65;7.38;;;;;;;;;;5056209;28;20025;-75
2022/05/10 14:33:19;;;;;;;21.35;9.68;;;;;;;;;;5056532;28;20099;-78
2022/05/10 14:35:47;;;;;;;15.48;8.35;;;;;;;;;;5053934;28;20033;-76
2022/05/10 14:38:16;;;;;;;20.83;8.63;;;;;;;;;;5041428;28;20087;-76
2022/05/10 14:40:45;;;;;;;19.50;9.35;;;;;;;;;;5040333;28;20112;-77
2022/05/10 14:43:13;;;;;;;23.98;10.05;;;;;;;;;;5039098;28;20064;-77
2022/05/10 14:45:42;;;;;;;20.15;8.82;;;;;;;;;;5037090;28;20035;-77
2022/05/10 14:48:28;;;;;;;17.75;8.75;;;;;;;;;;5036693;28;20048;-78
2022/05/10 14:50:57;;;;;;;21.65;9.98;;;16.20;82.70;;;;;;5038729;28;20029;-78
2022/05/10 14:53:25;;;;;;;26.45;12.65;;;21.10;99.90;;;;;;5034483;28;20034;-76
2022/05/10 14:56:03;;;;;;;30.45;11.52;;;20.90;99.90;;;;;;5032721;28;20030;-76
2022/05/10 14:58:35;;;;;;;25.35;9.80;;;20.90;99.90;;;;;;5036215;28;20499;-77
2022/05/10 15:01:08;;;;;;;18.05;9.80;;;21.00;99.90;;;;;;5037998;28;20025;-77
2022/05/10 15:03:37;;;;;;;19.98;11.15;;;21.10;99.90;;;;;;5036444;28;20030;-75
2022/05/10 15:06:03;;;;;;;18.45;9.77;;;21.10;99.90;;;;;;5034861;28;20044;-76
2022/05/10 15:08:29;;;;;;;20.35;9.57;;;21.10;99.90;;;;;;5036631;28;20510;-76
2022/05/10 15:10:58;;;;;;;32.75;11.50;;;21.20;99.90;;;;;;5038169;28;20025;-76